createdAt,value
2023-08-12T00:01:41.380Z,100.00
2023-08-12T00:04:58.704Z,100.00
2023-08-12T00:08:15.967Z,100.00
2023-08-12T00:11:32.602Z,100.00
2023-08-12T00:14:49.182Z,100.00
2023-08-12T00:18:07.841Z,100.00
2023-08-12T00:21:24.579Z,100.00
2023-08-12T00:24:41.393Z,100.00
2023-08-12T00:27:57.963Z,100.00
2023-08-12T00:31:14.680Z,100.00
2023-08-12T00:34:31.309Z,100.00
2023-08-12T00:37:48.337Z,100.00
2023-08-12T00:41:05.015Z,100.00
2023-08-12T00:44:21.755Z,100.00
2023-08-12T00:47:40.285Z,100.00
2023-08-12T00:50:58.763Z,100.00
2023-08-12T00:54:20.254Z,100.00
2023-08-12T00:57:38.362Z,100.00
2023-08-12T01:00:55.290Z,100.00
2023-08-12T01:04:12.680Z,100.00
2023-08-12T01:07:29.365Z,100.00
2023-08-12T01:10:50.324Z,100.00
2023-08-12T01:14:12.119Z,100.00
2023-08-12T01:17:31.784Z,100.00
2023-08-12T01:20:49.022Z,100.00
2023-08-12T01:24:06.293Z,100.00
2023-08-12T01:27:24.023Z,100.00
2023-08-12T01:30:43.077Z,100.00
2023-08-12T01:34:05.588Z,100.00
2023-08-12T01:37:27.678Z,100.00
2023-08-12T01:40:45.704Z,100.00
2023-08-12T01:44:02.897Z,100.00
2023-08-12T01:47:20.538Z,100.00
2023-08-12T01:50:36.948Z,100.00
2023-08-12T01:53:53.643Z,100.00
2023-08-12T01:57:12.208Z,100.00
2023-08-12T02:00:29.249Z,100.00
2023-08-12T02:03:45.943Z,100.00
2023-08-12T02:07:02.857Z,100.00
2023-08-12T02:10:21.070Z,100.00
2023-08-12T02:13:38.148Z,100.00
2023-08-12T02:16:54.832Z,100.00
2023-08-12T02:20:15.133Z,100.00
2023-08-12T02:23:31.695Z,100.00
2023-08-12T02:26:48.422Z,100.00
2023-08-12T02:30:05.834Z,100.00
2023-08-12T02:33:24.835Z,100.00
2023-08-12T02:36:41.535Z,100.00
2023-08-12T02:39:58.092Z,100.00
2023-08-12T02:43:14.907Z,100.00
2023-08-12T02:46:32.230Z,100.00
2023-08-12T02:49:49.648Z,100.00
2023-08-12T02:53:06.498Z,100.00
2023-08-12T02:56:23.346Z,100.00
2023-08-12T02:59:40.022Z,100.00
2023-08-12T03:02:56.768Z,100.00
2023-08-12T03:06:14.480Z,100.00
2023-08-12T03:09:31.187Z,100.00
2023-08-12T03:12:48.094Z,100.00
2023-08-12T03:16:05.875Z,100.00
2023-08-12T03:19:22.503Z,100.00
2023-08-12T03:22:39.882Z,100.00
2023-08-12T03:25:59.367Z,100.00
2023-08-12T03:29:16.089Z,100.00
2023-08-12T03:32:32.938Z,100.00
2023-08-12T03:35:53.098Z,100.00
2023-08-12T03:39:10.233Z,100.00
2023-08-12T03:42:27.319Z,100.00
2023-08-12T03:45:48.330Z,100.00
2023-08-12T03:49:06.025Z,100.00
2023-08-12T03:52:29.719Z,100.00
2023-08-12T03:55:46.431Z,100.00
2023-08-12T03:59:06.106Z,100.00
2023-08-12T04:02:22.812Z,100.00
2023-08-12T04:05:39.516Z,100.00
2023-08-12T04:09:01.613Z,100.00
2023-08-12T04:12:22.037Z,100.00
2023-08-12T04:15:38.697Z,100.00
2023-08-12T04:18:55.385Z,100.00
2023-08-12T04:22:12.120Z,100.00
2023-08-12T04:25:29.418Z,100.00
2023-08-12T04:28:46.540Z,100.00
2023-08-12T04:32:03.831Z,100.00
2023-08-12T04:35:21.905Z,100.00
2023-08-12T04:38:39.746Z,100.00
2023-08-12T04:41:57.521Z,100.00
2023-08-12T04:45:16.826Z,100.00
2023-08-12T04:48:36.871Z,100.00
2023-08-12T04:51:53.633Z,100.00
2023-08-12T04:55:12.804Z,100.00
2023-08-12T04:58:30.763Z,100.00
2023-08-12T05:02:02.311Z,100.00
2023-08-12T05:05:07.237Z,100.00
2023-08-12T05:08:24.911Z,100.00
2023-08-12T05:11:41.721Z,100.00
2023-08-12T05:14:58.817Z,100.00
2023-08-12T05:18:17.314Z,100.00
2023-08-12T05:21:34.152Z,100.00
2023-08-12T05:24:50.912Z,100.00
2023-08-12T05:28:07.471Z,100.00
2023-08-12T05:31:24.279Z,100.00
2023-08-12T05:34:41.018Z,100.00
2023-08-12T05:37:57.690Z,100.00
2023-08-12T05:41:14.397Z,100.00
2023-08-12T05:44:31.123Z,100.00
2023-08-12T05:47:48.040Z,100.00
2023-08-12T05:51:04.843Z,100.00
2023-08-12T05:54:24.781Z,100.00
2023-08-12T05:57:41.433Z,100.00
2023-08-12T06:00:58.371Z,100.00
2023-08-12T06:04:16.957Z,100.00
2023-08-12T06:07:34.494Z,100.00
2023-08-12T06:10:51.605Z,100.00
2023-08-12T06:14:08.176Z,100.00
2023-08-12T06:17:28.149Z,100.00
2023-08-12T06:20:46.729Z,100.00
2023-08-12T06:24:03.841Z,100.00
2023-08-12T06:27:22.095Z,100.00
2023-08-12T06:30:39.167Z,100.00
2023-08-12T06:33:55.778Z,100.00
2023-08-12T06:37:12.687Z,100.00
2023-08-12T06:40:30.075Z,100.00
2023-08-12T06:43:52.030Z,100.00
2023-08-12T06:47:09.169Z,100.00
2023-08-12T06:50:50.263Z,100.00
2023-08-12T06:54:22.791Z,100.00
2023-08-12T06:57:49.718Z,100.00
2023-08-12T07:01:15.917Z,100.00
2023-08-12T07:04:41.358Z,100.00
2023-08-12T07:07:58.972Z,100.00
2023-08-12T07:11:26.182Z,100.00
2023-08-12T07:14:55.756Z,100.00
2023-08-12T07:18:25.144Z,100.00
2023-08-12T07:21:53.713Z,100.00
2023-08-12T07:25:25.005Z,100.00
2023-08-12T07:28:53.626Z,100.00
2023-08-12T07:32:26.698Z,100.00
2023-08-12T07:35:45.574Z,100.00
2023-08-12T07:39:09.414Z,100.00
2023-08-12T07:42:31.338Z,100.00
2023-08-12T07:45:51.510Z,100.00
2023-08-12T07:49:12.314Z,100.00
2023-08-12T07:52:31.784Z,100.00
2023-08-12T07:55:48.616Z,100.00
2023-08-12T07:59:12.435Z,100.00
2023-08-12T08:02:34.720Z,100.00
2023-08-12T08:05:52.760Z,100.00
2023-08-12T08:09:09.529Z,100.00
2023-08-12T08:12:26.437Z,100.00
2023-08-12T08:15:43.013Z,100.00
2023-08-12T08:18:59.642Z,100.00
2023-08-12T08:22:16.409Z,100.00
2023-08-12T08:25:33.176Z,100.00
2023-08-12T08:28:50.541Z,100.00
2023-08-12T08:32:07.445Z,100.00
2023-08-12T08:35:29.647Z,100.00
2023-08-12T08:38:47.759Z,100.00
2023-08-12T08:42:05.707Z,100.00
2023-08-12T08:45:24.787Z,100.00
2023-08-12T08:48:43.731Z,100.00
2023-08-12T08:52:01.532Z,96.41
2023-08-12T08:55:20.498Z,97.58
2023-08-12T08:58:38.194Z,100.00
2023-08-12T09:01:56.959Z,99.77
2023-08-12T09:05:18.899Z,97.71
2023-08-12T09:08:37.724Z,96.63
2023-08-12T09:11:55.112Z,96.72
2023-08-12T09:15:13.042Z,96.32
2023-08-12T09:18:29.882Z,96.55
2023-08-12T09:21:46.563Z,96.91
2023-08-12T09:25:09.410Z,95.15
2023-08-12T09:28:26.793Z,96.16
2023-08-12T09:31:43.715Z,96.53
2023-08-12T09:35:05.130Z,96.02
2023-08-12T09:38:24.420Z,97.00
2023-08-12T09:41:41.187Z,97.58
2023-08-12T09:44:58.051Z,98.33
2023-08-12T09:48:17.657Z,96.83
2023-08-12T09:51:34.601Z,97.95
2023-08-12T09:54:53.771Z,98.29
2023-08-12T09:58:14.818Z,96.67
2023-08-12T10:01:32.238Z,100.00
2023-08-12T10:04:52.784Z,99.90
2023-08-12T10:08:10.054Z,99.40
2023-08-12T10:11:28.020Z,98.44
2023-08-12T10:14:42.542Z,99.83
2023-08-12T10:18:00.750Z,98.87
2023-08-12T10:21:19.875Z,99.00
2023-08-12T10:24:37.308Z,98.65
2023-08-12T10:27:54.274Z,98.54
2023-08-12T10:31:11.622Z,99.98
2023-08-12T10:34:34.532Z,100.00
2023-08-12T10:37:53.350Z,100.00
2023-08-12T10:41:27.742Z,98.71
2023-08-12T10:44:58.402Z,100.00
2023-08-12T10:48:31.050Z,100.00
2023-08-12T10:51:56.775Z,100.00
2023-08-12T10:55:31.184Z,100.00
2023-08-12T10:58:53.616Z,100.00
2023-08-12T11:02:22.869Z,100.00
2023-08-12T11:05:46.776Z,100.00
2023-08-12T11:09:05.262Z,100.00
2023-08-12T11:12:25.604Z,100.00
2023-08-12T11:15:47.605Z,100.00
2023-08-12T11:19:05.176Z,100.00
2023-08-12T11:22:23.153Z,100.00
2023-08-12T11:25:42.222Z,100.00
2023-08-12T11:28:59.957Z,100.00
2023-08-12T11:32:17.198Z,100.00
2023-08-12T11:35:34.619Z,100.00
2023-08-12T11:38:51.293Z,100.00
2023-08-12T11:42:08.287Z,100.00
2023-08-12T11:45:28.204Z,100.00
2023-08-12T11:48:44.811Z,100.00
2023-08-12T11:52:01.632Z,100.00
2023-08-12T11:55:19.665Z,100.00
2023-08-12T11:58:52.406Z,100.00
2023-08-12T12:02:03.767Z,100.00
2023-08-12T12:05:24.536Z,100.00
2023-08-12T12:08:43.909Z,100.00
2023-08-12T12:12:02.282Z,100.00
2023-08-12T12:15:21.653Z,100.00
2023-08-12T12:18:38.791Z,100.00
2023-08-12T12:21:57.487Z,100.00
2023-08-12T12:25:21.296Z,100.00
2023-08-12T12:28:38.655Z,100.00
2023-08-12T12:31:56.251Z,100.00
2023-08-12T12:35:22.820Z,100.00
2023-08-12T12:38:56.657Z,100.00
2023-08-12T12:42:19.225Z,100.00
2023-08-12T12:45:37.761Z,100.00
2023-08-12T12:48:58.172Z,100.00
2023-08-12T12:52:20.140Z,100.00
2023-08-12T12:55:42.904Z,100.00
2023-08-12T12:59:02.899Z,100.00
2023-08-12T13:02:27.854Z,100.00
2023-08-12T13:05:49.621Z,100.00
2023-08-12T13:09:12.423Z,100.00
2023-08-12T13:12:29.081Z,100.00
2023-08-12T13:15:46.206Z,100.00
2023-08-12T13:19:02.946Z,100.00
2023-08-12T13:22:20.163Z,100.00
2023-08-12T13:25:42.189Z,100.00
2023-08-12T13:29:13.468Z,100.00
2023-08-12T13:32:30.117Z,100.00
2023-08-12T13:35:47.176Z,100.00
2023-08-12T13:39:04.812Z,100.00
2023-08-12T13:42:21.326Z,100.00
2023-08-12T13:45:38.186Z,100.00
2023-08-12T13:48:54.860Z,100.00
2023-08-12T13:52:12.085Z,100.00
2023-08-12T13:55:29.134Z,100.00
2023-08-12T13:58:45.689Z,100.00
2023-08-12T14:02:02.357Z,100.00
2023-08-12T14:05:20.628Z,100.00
2023-08-12T14:08:37.517Z,100.00
2023-08-12T14:11:54.856Z,100.00
2023-08-12T14:15:13.188Z,100.00
2023-08-12T14:18:30.023Z,100.00
2023-08-12T14:21:46.734Z,100.00
2023-08-12T14:25:04.623Z,100.00
2023-08-12T14:28:19.598Z,100.00
2023-08-12T14:31:36.319Z,100.00
2023-08-12T14:34:53.023Z,100.00
2023-08-12T14:38:09.956Z,100.00
2023-08-12T14:41:27.051Z,100.00
2023-08-12T14:44:47.889Z,100.00
2023-08-12T14:48:04.573Z,100.00
2023-08-12T14:51:21.383Z,100.00
2023-08-12T14:54:42.516Z,100.00
2023-08-12T14:58:00.200Z,100.00
2023-08-12T15:01:19.985Z,100.00
2023-08-12T15:04:36.936Z,100.00
2023-08-12T15:07:53.809Z,100.00
2023-08-12T15:11:12.514Z,100.00
2023-08-12T15:14:33.223Z,100.00
2023-08-12T15:17:52.133Z,100.00
2023-08-12T15:21:09.238Z,100.00
2023-08-12T15:24:26.034Z,100.00
2023-08-12T15:27:43.121Z,100.00
2023-08-12T15:31:01.657Z,100.00
2023-08-12T15:34:15.940Z,100.00
2023-08-12T15:37:32.294Z,100.00
2023-08-12T15:40:53.965Z,100.00
2023-08-12T15:44:14.116Z,100.00
2023-08-12T15:47:34.708Z,100.00
2023-08-12T15:50:55.745Z,100.00
2023-08-12T15:54:16.340Z,100.00
2023-08-12T15:57:33.065Z,100.00
2023-08-12T16:00:53.799Z,100.00
2023-08-12T16:04:15.632Z,100.00
2023-08-12T16:07:33.509Z,100.00
2023-08-12T16:10:53.640Z,100.00
2023-08-12T16:14:12.123Z,100.00
2023-08-12T16:17:31.459Z,100.00
2023-08-12T16:20:48.398Z,100.00
2023-08-12T16:24:06.331Z,100.00
2023-08-12T16:27:23.198Z,100.00
2023-08-12T16:30:39.855Z,100.00
2023-08-12T16:33:59.743Z,100.00
2023-08-12T16:37:20.797Z,100.00
2023-08-12T16:40:39.529Z,100.00
2023-08-12T16:43:58.115Z,100.00
2023-08-12T16:47:17.937Z,100.00
2023-08-12T16:50:39.086Z,100.00
2023-08-12T16:53:58.770Z,100.00
2023-08-12T16:57:24.551Z,100.00
2023-08-12T17:00:44.546Z,100.00
2023-08-12T17:04:04.418Z,100.00
2023-08-12T17:07:25.390Z,100.00
2023-08-12T17:10:49.133Z,100.00
2023-08-12T17:14:12.314Z,100.00
2023-08-12T17:17:34.868Z,100.00
2023-08-12T17:20:51.812Z,100.00
2023-08-12T17:24:11.168Z,100.00
2023-08-12T17:27:31.125Z,100.00
2023-08-12T17:30:47.956Z,100.00
2023-08-12T17:34:04.872Z,100.00
2023-08-12T17:37:21.465Z,100.00
2023-08-12T17:40:38.173Z,100.00
2023-08-12T17:43:54.789Z,100.00
2023-08-12T17:47:13.383Z,100.00
2023-08-12T17:50:27.788Z,100.00
2023-08-12T17:53:44.673Z,100.00
2023-08-12T17:57:06.074Z,100.00
2023-08-12T18:00:24.961Z,100.00
2023-08-12T18:03:41.839Z,100.00
2023-08-12T18:06:58.666Z,100.00
2023-08-12T18:10:16.578Z,100.00
2023-08-12T18:13:36.060Z,100.00
2023-08-12T18:16:53.066Z,100.00
2023-08-12T18:20:11.539Z,100.00
2023-08-12T18:23:29.494Z,100.00
2023-08-12T18:26:46.284Z,100.00
2023-08-12T18:30:04.235Z,100.00
2023-08-12T18:33:21.181Z,100.00
2023-08-12T18:36:39.388Z,100.00
2023-08-12T18:39:56.260Z,100.00
2023-08-12T18:43:13.098Z,100.00
2023-08-12T18:46:32.506Z,100.00
2023-08-12T18:49:51.120Z,100.00
2023-08-12T18:53:06.367Z,100.00
2023-08-12T18:56:22.903Z,100.00
2023-08-12T18:59:39.697Z,100.00
2023-08-12T19:02:56.465Z,100.00
2023-08-12T19:06:13.441Z,100.00
2023-08-12T19:09:30.194Z,100.00
2023-08-12T19:12:46.839Z,100.00
2023-08-12T19:16:04.518Z,100.00
2023-08-12T19:19:21.348Z,100.00
2023-08-12T19:22:38.572Z,100.00
2023-08-12T19:26:03.895Z,100.00
2023-08-12T19:29:32.106Z,100.00
2023-08-12T19:33:04.693Z,100.00
2023-08-12T19:36:22.521Z,100.00
2023-08-12T19:39:39.752Z,100.00
2023-08-12T19:42:57.023Z,100.00
2023-08-12T19:46:14.535Z,100.00
2023-08-12T19:49:41.382Z,100.00
2023-08-12T19:53:04.012Z,100.00
2023-08-12T19:56:30.415Z,100.00
2023-08-12T19:59:52.144Z,100.00
2023-08-12T20:03:12.539Z,100.00
2023-08-12T20:06:33.631Z,100.00
2023-08-12T20:09:51.181Z,100.00
2023-08-12T20:13:09.074Z,100.00
2023-08-12T20:16:37.830Z,100.00
2023-08-12T20:19:56.912Z,100.00
2023-08-12T20:23:16.081Z,100.00
2023-08-12T20:26:37.261Z,100.00
2023-08-12T20:29:57.645Z,100.00
2023-08-12T20:33:16.259Z,100.00
2023-08-12T20:36:34.074Z,100.00
2023-08-12T20:39:51.328Z,100.00
2023-08-12T20:43:11.720Z,100.00
2023-08-12T20:46:28.854Z,100.00
2023-08-12T20:49:46.390Z,100.00
2023-08-12T20:53:03.935Z,100.00
2023-08-12T20:56:21.129Z,100.00
2023-08-12T20:59:40.294Z,100.00
2023-08-12T21:02:57.674Z,100.00
2023-08-12T21:06:17.078Z,100.00
2023-08-12T21:09:37.259Z,100.00
2023-08-12T21:12:54.640Z,100.00
2023-08-12T21:16:12.990Z,100.00
2023-08-12T21:19:32.411Z,100.00
2023-08-12T21:22:51.960Z,100.00
2023-08-12T21:26:09.651Z,100.00
2023-08-12T21:29:26.944Z,100.00
2023-08-12T21:32:47.392Z,100.00
2023-08-12T21:36:08.326Z,100.00
2023-08-12T21:39:27.171Z,100.00
2023-08-12T21:42:49.606Z,100.00
2023-08-12T21:46:10.298Z,100.00
2023-08-12T21:49:44.698Z,100.00
2023-08-12T21:53:18.586Z,100.00
2023-08-12T21:56:46.835Z,100.00
2023-08-12T22:00:31.710Z,100.00
2023-08-12T22:03:57.597Z,100.00
2023-08-12T22:07:31.322Z,100.00
2023-08-12T22:11:15.690Z,100.00
2023-08-12T22:14:48.748Z,100.00
2023-08-12T22:18:17.618Z,100.00
2023-08-12T22:21:44.768Z,100.00
2023-08-12T22:25:03.560Z,100.00
2023-08-12T22:28:22.397Z,100.00
2023-08-12T22:31:42.732Z,100.00
2023-08-12T22:35:07.958Z,100.00
2023-08-12T22:38:29.819Z,100.00
2023-08-12T22:41:55.338Z,100.00
2023-08-12T22:45:14.339Z,100.00
2023-08-12T22:48:32.244Z,100.00
2023-08-12T22:51:53.254Z,100.00
2023-08-12T22:55:14.112Z,100.00
2023-08-12T22:58:37.384Z,100.00
2023-08-12T23:01:58.196Z,100.00
2023-08-12T23:05:16.951Z,100.00
2023-08-12T23:08:37.736Z,100.00
2023-08-12T23:12:00.978Z,100.00
2023-08-12T23:15:23.306Z,100.00
2023-08-12T23:18:41.120Z,100.00
2023-08-12T23:22:01.634Z,100.00
2023-08-12T23:25:54.010Z,100.00
2023-08-12T23:29:36.644Z,100.00
2023-08-12T23:32:55.958Z,100.00
2023-08-12T23:36:16.882Z,100.00
2023-08-12T23:39:44.347Z,100.00
2023-08-12T23:43:19.170Z,100.00
2023-08-12T23:46:36.623Z,100.00
2023-08-12T23:49:55.178Z,100.00
2023-08-12T23:53:27.921Z,100.00
2023-08-12T23:57:09.380Z,100.00
